This is the latest recevied weather packets stored in our database for station/object EW8324. If no packets are shown the sender has not sent any weather packets the latest 1 day(s).
| Time | Temp. | Humidity | Pressure | Rain* | Wind** | Luminosity | Snow |
|---|---|---|---|---|---|---|---|
| 1778031968 | 26.67° C | 79% | 1003.3 hPa | 0 mm | 0 m/s | 0 W/m² | - |
| 1778031672 | 26.67° C | 79% | 1003.2 hPa | 0 mm | 0 m/s | 0 W/m² | - |
| 1778031369 | 26.67° C | 79% | 1003.1 hPa | 0 mm | 0 m/s | 0 W/m² | - |
| 1778031070 | 26.67° C | 79% | 1003.1 hPa | 0 mm | 0 m/s | 0 W/m² | - |
| 1778030829 | 26.67° C | 79% | 1003.1 hPa | 0 mm | 0 m/s | 0 W/m² | - |
| 1778030472 | 26.67° C | 78% | 1002.9 hPa | 0 mm | 0 m/s | 0 W/m² | - |
| 1778030168 | 26.67° C | 78% | 1002.8 hPa | 0 mm | 0 m/s | 0 W/m² | - |
| 1778029872 | 26.67° C | 78% | 1002.6 hPa | 0 mm | 0 m/s | 0 W/m² | - |
| 1778029567 | 27.22° C | 78% | 1002.6 hPa | 0 mm | 0 m/s | 0 W/m² | - |
| 1778029278 | 27.22° C | 77% | 1002.6 hPa | 0 mm | 0 m/s | 0 W/m² | - |
| 1778028967 | 27.22° C | 77% | 1002.6 hPa | 0 mm | 0 m/s | 0 W/m² | - |
| 1778028669 | 27.22° C | 77% | 1002.6 hPa | 0 mm | 0 m/s | 5 W/m² | - |
| 1778028369 | 27.22° C | 77% | 1002.5 hPa | 0 mm | 0 m/s | 7 W/m² | - |
| 1778028070 | 27.22° C | 76% | 1002.5 hPa | 0 mm | 0 m/s | 9 W/m² | - |
| 1778027766 | 27.78° C | 75% | 1002.5 hPa | 0 mm | 0 m/s | 11 W/m² | - |
| 1778027473 | 27.78° C | 75% | 1002.6 hPa | 0 mm | 0 m/s | 19 W/m² | - |
| 1778027168 | 28.33° C | 73% | 1002.5 hPa | 0 mm | 0 m/s | 21 W/m² | - |
| 1778026930 | 28.33° C | 73% | 1002.4 hPa | 0 mm | 0 m/s | 28 W/m² | - |
| 1778026566 | 29.44° C | 71% | 1002.4 hPa | 0 mm | 0 m/s | 30 W/m² | - |
| 1778026271 | 29.44° C | 72% | 1002.3 hPa | 0 mm | 0.45 m/s, 192° | 39 W/m² | - |
| 1778025966 | 28.89° C | 73% | 1002.3 hPa | 0 mm | 0 m/s | 35 W/m² | - |
| 1778025730 | 28.33° C | 76% | 1002.5 hPa | 0 mm | 0 m/s | 37 W/m² | - |
| 1778025367 | 27.78° C | 77% | 1002.4 hPa | 0 mm | 0 m/s | 49 W/m² | - |
| 1778025070 | 27.78° C | 77% | 1002.3 hPa | 0 mm | 0 m/s | 40 W/m² | - |
| 1778024766 | 27.78° C | 77% | 1002.3 hPa | 0 mm | 0 m/s | 62 W/m² | - |
* Rain latest hour (hover to see other rain measurements)
** Current wind speed in m/s (hover to see current wind gust speed)